createdAt,value
2019-02-19T00:00:57.711Z,9.20
2019-02-19T00:01:57.906Z,9.13
2019-02-19T00:02:57.776Z,9.10
2019-02-19T00:03:57.805Z,9.03
2019-02-19T00:04:57.839Z,9.04
2019-02-19T00:05:57.877Z,9.03
2019-02-19T00:06:57.904Z,9.10
2019-02-19T00:07:57.933Z,9.04
2019-02-19T00:08:57.961Z,9.04
2019-02-19T00:09:57.993Z,9.04
2019-02-19T00:10:58.026Z,9.13
2019-02-19T00:11:58.054Z,9.04
2019-02-19T00:12:58.087Z,9.08
2019-02-19T00:13:58.116Z,9.06
2019-02-19T00:14:58.148Z,9.04
2019-02-19T00:15:58.183Z,9.06
2019-02-19T00:16:58.211Z,9.10
2019-02-19T00:17:58.243Z,9.00
2019-02-19T00:18:58.276Z,8.98
2019-02-19T00:19:58.303Z,8.96
2019-02-19T00:20:58.337Z,9.06
2019-02-19T00:21:58.368Z,8.97
2019-02-19T00:22:58.396Z,8.93
2019-02-19T00:23:58.426Z,8.88
2019-02-19T00:24:58.474Z,8.86
2019-02-19T00:25:58.489Z,8.86
2019-02-19T00:26:58.520Z,8.88
2019-02-19T00:27:58.556Z,8.96
2019-02-19T00:28:58.582Z,8.93
2019-02-19T00:29:58.627Z,8.97
2019-02-19T00:30:58.647Z,8.98
2019-02-19T00:31:58.677Z,8.97
2019-02-19T00:32:58.706Z,8.98
2019-02-19T00:33:58.738Z,8.94
2019-02-19T00:34:58.768Z,9.00
2019-02-19T00:35:58.802Z,8.94
2019-02-19T00:36:58.828Z,8.85
2019-02-19T00:37:58.861Z,8.91
2019-02-19T00:38:58.891Z,8.97
2019-02-19T00:39:58.921Z,8.89
2019-02-19T00:40:58.952Z,8.91
2019-02-19T00:41:58.983Z,8.96
2019-02-19T00:42:59.026Z,8.91
2019-02-19T00:43:59.047Z,8.89
2019-02-19T00:44:59.079Z,9.00
2019-02-19T00:45:59.107Z,8.86
2019-02-19T00:46:59.140Z,8.89
2019-02-19T00:47:59.167Z,8.88
2019-02-19T00:48:59.199Z,8.89
2019-02-19T00:49:59.232Z,8.96
2019-02-19T00:50:59.261Z,8.93
2019-02-19T00:51:59.294Z,8.93
2019-02-19T00:52:59.337Z,8.86
2019-02-19T00:53:59.355Z,8.93
2019-02-19T00:54:59.386Z,8.86
2019-02-19T00:55:59.414Z,8.88
2019-02-19T00:56:59.446Z,8.93
2019-02-19T00:57:59.476Z,8.79
2019-02-19T00:58:59.511Z,8.86
2019-02-19T00:59:59.543Z,8.80
2019-02-19T01:00:59.571Z,8.79
2019-02-19T01:01:59.600Z,8.79
2019-02-19T01:02:59.634Z,8.80
2019-02-19T01:03:59.661Z,8.82
2019-02-19T01:04:59.692Z,8.75
2019-02-19T01:05:59.723Z,8.71
2019-02-19T01:06:59.756Z,8.70
2019-02-19T01:07:59.787Z,8.63
2019-02-19T01:08:59.816Z,8.68
2019-02-19T01:09:59.849Z,8.54
2019-02-19T01:10:59.881Z,8.60
2019-02-19T01:11:59.912Z,8.61
2019-02-19T01:12:59.940Z,8.55
2019-02-19T01:13:59.970Z,8.49
2019-02-19T01:14:59.992Z,8.57
2019-02-19T01:16:00.021Z,8.49
2019-02-19T01:17:00.053Z,8.58
2019-02-19T01:18:00.084Z,8.50
2019-02-19T01:19:00.115Z,8.61
2019-02-19T01:20:00.283Z,8.60
2019-02-19T01:21:00.178Z,8.64
2019-02-19T01:22:00.206Z,8.58
2019-02-19T01:23:00.237Z,8.47
2019-02-19T01:24:00.267Z,8.57
2019-02-19T01:25:00.386Z,8.50
2019-02-19T01:26:00.330Z,8.68
2019-02-19T01:27:00.359Z,8.57
2019-02-19T01:28:00.393Z,8.54
2019-02-19T01:29:00.424Z,8.60
2019-02-19T01:30:00.451Z,8.67
2019-02-19T01:31:00.484Z,8.50
2019-02-19T01:32:00.514Z,8.52
2019-02-19T01:33:00.544Z,8.58
2019-02-19T01:34:00.577Z,8.49
2019-02-19T01:35:00.608Z,8.54
2019-02-19T01:36:00.638Z,8.50
2019-02-19T01:37:00.677Z,8.54
2019-02-19T01:38:00.696Z,8.50
2019-02-19T01:39:00.730Z,8.50
2019-02-19T01:40:00.759Z,8.46
2019-02-19T01:41:00.788Z,8.43
2019-02-19T01:42:00.821Z,8.54
2019-02-19T01:43:00.849Z,8.58
2019-02-19T01:44:00.884Z,8.46
2019-02-19T01:45:00.912Z,8.47
2019-02-19T01:46:00.944Z,8.40
2019-02-19T01:47:00.975Z,8.45
2019-02-19T01:48:01.005Z,8.43
2019-02-19T01:49:01.041Z,8.39
2019-02-19T01:50:01.064Z,8.37
2019-02-19T01:51:01.099Z,8.31
2019-02-19T01:52:01.124Z,8.28
2019-02-19T01:53:01.156Z,8.29
2019-02-19T01:54:01.194Z,8.29
2019-02-19T01:55:01.218Z,8.32
2019-02-19T01:56:01.248Z,8.24
2019-02-19T01:57:01.277Z,8.27
2019-02-19T01:58:01.308Z,8.36
2019-02-19T01:59:01.346Z,8.31
2019-02-19T02:00:01.391Z,8.27
2019-02-19T02:01:01.404Z,8.22
2019-02-19T02:02:01.437Z,8.18
2019-02-19T02:03:01.461Z,8.27
2019-02-19T02:04:01.497Z,8.25
2019-02-19T02:05:01.526Z,8.24
2019-02-19T02:06:01.556Z,8.22
2019-02-19T02:07:01.583Z,8.18
2019-02-19T02:08:01.613Z,8.24
2019-02-19T02:09:01.643Z,8.20
2019-02-19T02:10:01.677Z,8.09
2019-02-19T02:11:01.706Z,8.14
2019-02-19T02:12:01.734Z,8.07
2019-02-19T02:13:01.779Z,8.13
2019-02-19T02:14:01.796Z,8.02
2019-02-19T02:15:01.830Z,8.07
2019-02-19T02:16:01.856Z,8.07
2019-02-19T02:17:01.886Z,8.06
2019-02-19T02:18:01.927Z,8.09
2019-02-19T02:19:01.948Z,8.09
2019-02-19T02:20:01.978Z,8.07
2019-02-19T02:21:02.014Z,8.06
2019-02-19T02:22:02.055Z,8.12
2019-02-19T02:23:02.069Z,8.07
2019-02-19T02:24:02.098Z,8.02
2019-02-19T02:25:02.167Z,8.07
2019-02-19T02:26:02.162Z,8.09
2019-02-19T02:27:02.203Z,7.99
2019-02-19T02:28:02.221Z,8.00
2019-02-19T02:29:02.254Z,8.03
2019-02-19T02:30:02.282Z,8.00
2019-02-19T02:31:02.313Z,8.03
2019-02-19T02:32:02.342Z,8.00
2019-02-19T02:33:02.374Z,8.04
2019-02-19T02:34:02.403Z,8.03
2019-02-19T02:35:02.432Z,8.03
2019-02-19T02:36:02.463Z,8.03
2019-02-19T02:37:02.502Z,8.00
2019-02-19T02:38:02.529Z,8.00
2019-02-19T02:39:02.558Z,8.09
2019-02-19T02:40:02.591Z,8.09
2019-02-19T02:41:02.614Z,8.10
2019-02-19T02:42:02.644Z,8.06
2019-02-19T02:43:02.676Z,8.12
2019-02-19T02:44:02.705Z,8.07
2019-02-19T02:45:02.735Z,8.04
2019-02-19T02:46:02.767Z,8.10
2019-02-19T02:48:46.123Z,8.10
2019-02-19T02:49:45.755Z,8.06
2019-02-19T02:51:49.781Z,8.14
2019-02-19T02:52:49.809Z,8.06
2019-02-19T02:54:53.826Z,8.14
2019-02-19T02:55:53.854Z,8.04
2019-02-19T02:57:57.877Z,8.13
2019-02-19T02:58:57.902Z,8.04
2019-02-19T03:01:01.948Z,8.18
2019-02-19T03:02:01.951Z,8.20
2019-02-19T03:04:05.978Z,8.18
2019-02-19T03:05:06.006Z,8.07
2019-02-19T03:07:10.050Z,8.24
2019-02-19T03:08:10.054Z,8.10
2019-02-19T03:10:14.090Z,8.10
2019-02-19T03:11:14.105Z,8.09
2019-02-19T03:13:18.128Z,8.17
2019-02-19T03:14:18.154Z,8.20
2019-02-19T03:16:22.188Z,8.14
2019-02-19T03:17:22.201Z,8.20
2019-02-19T03:19:26.227Z,8.21
2019-02-19T03:20:26.250Z,8.20
2019-02-19T03:22:30.303Z,8.24
2019-02-19T03:23:30.308Z,8.20
2019-02-19T03:25:23.250Z,8.28
2019-02-19T03:26:23.274Z,8.25
2019-02-19T03:28:27.316Z,8.27
2019-02-19T03:29:27.325Z,8.28
2019-02-19T03:31:31.349Z,8.18
2019-02-19T03:32:31.378Z,8.13
2019-02-19T03:34:35.400Z,8.20
2019-02-19T03:35:35.426Z,8.17
2019-02-19T03:37:39.451Z,8.17
2019-02-19T03:38:39.474Z,8.21
2019-02-19T03:40:43.503Z,8.31
2019-02-19T03:41:43.529Z,8.25
2019-02-19T03:43:47.549Z,8.20
2019-02-19T03:44:47.575Z,8.20
2019-02-19T03:46:51.600Z,8.17
2019-02-19T03:47:51.623Z,8.17
2019-02-19T03:49:55.661Z,8.13
2019-02-19T03:50:55.671Z,8.27
2019-02-19T03:52:59.691Z,8.24
2019-02-19T03:53:59.717Z,8.17
2019-02-19T03:55:52.703Z,8.22
2019-02-19T03:56:52.705Z,8.20
2019-02-19T03:58:56.712Z,8.04
2019-02-19T03:59:56.739Z,8.04
2019-02-19T04:02:00.761Z,8.06
2019-02-19T04:03:00.786Z,8.04
2019-02-19T04:05:04.810Z,8.06
2019-02-19T04:06:04.843Z,8.06
2019-02-19T04:08:08.862Z,8.12
2019-02-19T04:09:08.889Z,8.14
2019-02-19T04:11:12.924Z,8.20
2019-02-19T04:12:12.947Z,8.21
2019-02-19T04:14:16.968Z,8.20
2019-02-19T04:15:16.994Z,8.24
2019-02-19T04:17:21.030Z,8.12
2019-02-19T04:18:21.041Z,8.22
2019-02-19T04:20:25.063Z,8.10
2019-02-19T04:21:25.089Z,8.12
2019-02-19T04:23:29.111Z,8.09
2019-02-19T04:24:29.135Z,8.06
2019-02-19T04:26:33.160Z,8.07
2019-02-19T04:27:33.184Z,8.09
2019-02-19T04:29:37.220Z,8.07
2019-02-19T04:30:37.235Z,8.04
2019-02-19T04:32:41.274Z,8.07
2019-02-19T04:33:41.325Z,8.04
2019-02-19T04:35:34.232Z,8.10
2019-02-19T04:36:34.258Z,8.06
2019-02-19T04:38:38.297Z,8.12
2019-02-19T04:39:38.305Z,8.07
2019-02-19T04:41:42.351Z,8.07
2019-02-19T04:42:42.352Z,8.09
2019-02-19T04:44:46.378Z,8.06
2019-02-19T04:45:46.404Z,8.00
2019-02-19T04:47:50.428Z,8.03
2019-02-19T04:48:50.454Z,7.91
2019-02-19T04:50:54.478Z,8.00
2019-02-19T04:51:54.502Z,8.00
2019-02-19T04:53:58.525Z,7.91
2019-02-19T04:54:58.552Z,7.96
2019-02-19T04:57:02.589Z,7.89
2019-02-19T04:58:02.601Z,7.88
2019-02-19T05:00:06.621Z,7.82
2019-02-19T05:01:06.646Z,7.88
2019-02-19T05:03:10.685Z,7.91
2019-02-19T05:04:10.695Z,7.86
2019-02-19T05:06:03.638Z,7.85
2019-02-19T05:07:03.670Z,7.79
2019-02-19T05:09:07.688Z,7.84
2019-02-19T05:10:07.712Z,7.81
2019-02-19T05:12:11.737Z,7.92
2019-02-19T05:13:11.761Z,7.89
2019-02-19T05:15:15.794Z,7.86
2019-02-19T05:16:15.848Z,7.85
2019-02-19T05:18:19.836Z,7.85
2019-02-19T05:19:19.867Z,7.86
2019-02-19T05:21:23.889Z,7.81
2019-02-19T05:22:23.910Z,7.79
2019-02-19T05:24:27.948Z,7.84
2019-02-19T05:25:27.956Z,7.76
2019-02-19T05:27:31.980Z,7.79
2019-02-19T05:28:32.007Z,7.71
2019-02-19T05:30:36.054Z,7.74
2019-02-19T05:31:36.064Z,7.70
2019-02-19T05:33:40.087Z,7.77
2019-02-19T05:34:40.110Z,7.67
2019-02-19T05:36:44.132Z,7.71
2019-02-19T05:37:44.159Z,7.70
2019-02-19T05:39:48.224Z,7.69
2019-02-19T05:40:48.205Z,7.67
2019-02-19T05:42:52.254Z,7.63
2019-02-19T05:43:52.251Z,7.66
2019-02-19T05:45:45.258Z,7.63
2019-02-19T05:46:49.974Z,7.66
2019-02-19T05:48:49.245Z,7.73
2019-02-19T05:49:49.272Z,7.71
2019-02-19T05:51:53.313Z,7.69
2019-02-19T05:52:53.315Z,7.67
2019-02-19T05:54:57.337Z,7.73
2019-02-19T05:55:57.361Z,7.70
2019-02-19T05:58:01.382Z,7.67
2019-02-19T05:59:01.406Z,7.57
2019-02-19T06:01:05.430Z,7.54
2019-02-19T06:02:05.454Z,7.55
2019-02-19T06:04:09.477Z,7.55
2019-02-19T06:05:09.505Z,7.67
2019-02-19T06:07:13.554Z,7.67
2019-02-19T06:08:13.554Z,7.63
2019-02-19T06:10:17.573Z,7.70
2019-02-19T06:11:17.599Z,7.70
2019-02-19T06:13:21.637Z,7.70
2019-02-19T06:14:21.646Z,7.60
2019-02-19T06:16:26.161Z,7.69
2019-02-19T06:17:26.187Z,7.71
2019-02-19T06:18:26.226Z,7.70
2019-02-19T06:19:26.247Z,7.62
2019-02-19T06:20:26.275Z,7.67
2019-02-19T06:21:26.306Z,7.58
2019-02-19T06:22:26.337Z,7.66
2019-02-19T06:23:26.365Z,7.63
2019-02-19T06:24:26.395Z,7.63
2019-02-19T06:25:26.426Z,7.66
2019-02-19T06:26:26.455Z,7.63
2019-02-19T06:27:26.487Z,7.66
2019-02-19T06:28:26.515Z,7.73
2019-02-19T06:29:26.549Z,7.73
2019-02-19T06:30:26.576Z,7.77
2019-02-19T06:31:26.606Z,7.79
2019-02-19T06:32:26.633Z,7.79
2019-02-19T06:33:26.665Z,7.84
2019-02-19T06:34:26.694Z,7.85
2019-02-19T06:35:26.726Z,7.85
2019-02-19T06:36:26.753Z,7.95
2019-02-19T06:37:26.784Z,7.91
2019-02-19T06:38:26.813Z,7.92
2019-02-19T06:39:26.843Z,7.86
2019-02-19T06:40:26.874Z,7.91
2019-02-19T06:41:26.903Z,7.91
2019-02-19T06:42:26.933Z,8.04
2019-02-19T06:43:26.963Z,7.99
2019-02-19T06:44:26.994Z,8.00
2019-02-19T06:45:27.025Z,8.00
2019-02-19T06:46:27.056Z,8.09
2019-02-19T06:47:27.082Z,8.03
2019-02-19T06:48:27.112Z,8.03
2019-02-19T06:49:27.143Z,8.04
2019-02-19T06:50:27.174Z,8.00
2019-02-19T06:51:27.270Z,8.06
2019-02-19T06:52:27.253Z,8.03
2019-02-19T06:53:27.456Z,8.07
2019-02-19T06:54:27.343Z,8.04
2019-02-19T06:55:27.323Z,8.07
2019-02-19T06:56:27.353Z,8.04
2019-02-19T06:57:27.384Z,8.09
2019-02-19T06:58:27.413Z,8.06
2019-02-19T06:59:27.476Z,8.20
2019-02-19T07:00:27.473Z,8.06
2019-02-19T07:01:27.503Z,8.21
2019-02-19T07:02:27.535Z,8.17
2019-02-19T07:03:27.564Z,8.24
2019-02-19T07:04:27.593Z,8.24
2019-02-19T07:05:27.624Z,8.31
2019-02-19T07:06:27.668Z,8.14
2019-02-19T07:07:27.685Z,8.21
2019-02-19T07:08:27.714Z,8.25
2019-02-19T07:09:27.745Z,8.28
2019-02-19T07:10:27.774Z,8.39
2019-02-19T07:11:27.805Z,8.39
2019-02-19T07:12:27.834Z,8.42
2019-02-19T07:13:27.865Z,8.47
2019-02-19T07:14:27.895Z,8.46
2019-02-19T07:15:27.925Z,8.68
2019-02-19T07:16:27.956Z,8.70
2019-02-19T07:17:27.990Z,8.82
2019-02-19T07:18:28.016Z,8.79
2019-02-19T07:19:28.045Z,8.91
2019-02-19T07:20:28.077Z,8.91
2019-02-19T07:21:28.108Z,8.96
2019-02-19T07:22:28.196Z,8.94
2019-02-19T07:23:28.168Z,9.08
2019-02-19T07:24:28.197Z,9.15
2019-02-19T07:25:28.230Z,9.20
2019-02-19T07:26:28.262Z,9.12
2019-02-19T07:27:28.290Z,9.15
2019-02-19T07:28:28.321Z,9.24
2019-02-19T07:29:28.350Z,9.32
2019-02-19T07:30:28.380Z,9.30
2019-02-19T07:31:28.411Z,9.31
2019-02-19T07:32:28.441Z,9.40
2019-02-19T07:33:28.471Z,9.44
2019-02-19T07:34:28.502Z,9.48
2019-02-19T07:35:28.533Z,9.52
2019-02-19T07:36:28.564Z,9.55
2019-02-19T07:37:28.594Z,9.55
2019-02-19T07:38:28.625Z,9.52
2019-02-19T07:39:28.654Z,9.67
2019-02-19T07:40:28.686Z,9.60
2019-02-19T07:41:28.716Z,9.73
2019-02-19T07:42:28.754Z,9.70
2019-02-19T07:43:28.780Z,9.77
2019-02-19T07:44:28.813Z,9.77
2019-02-19T07:45:28.840Z,9.91
2019-02-19T07:46:28.879Z,9.99
2019-02-19T07:47:28.901Z,9.85
2019-02-19T07:48:28.931Z,9.93
2019-02-19T07:49:28.964Z,9.89
2019-02-19T07:50:28.993Z,9.91
2019-02-19T07:51:29.029Z,9.89
2019-02-19T07:52:29.055Z,9.89
2019-02-19T07:53:29.086Z,9.86
2019-02-19T07:54:29.117Z,10.01
2019-02-19T07:55:29.147Z,9.99
2019-02-19T07:56:29.180Z,10.06
2019-02-19T07:57:29.210Z,10.04
2019-02-19T07:58:29.241Z,10.11
2019-02-19T07:59:29.274Z,10.09
2019-02-19T08:00:29.302Z,10.07
2019-02-19T08:01:29.335Z,10.24
2019-02-19T08:02:29.369Z,10.32
2019-02-19T08:03:29.395Z,10.39
2019-02-19T08:04:29.442Z,10.29
2019-02-19T08:05:29.459Z,10.32
2019-02-19T08:06:29.490Z,10.39
2019-02-19T08:07:29.522Z,10.38
2019-02-19T08:08:29.556Z,10.49
2019-02-19T08:09:29.583Z,10.44
2019-02-19T08:10:29.617Z,10.42
2019-02-19T08:11:29.645Z,10.42
2019-02-19T08:12:29.677Z,10.39
2019-02-19T08:13:29.708Z,10.39
2019-02-19T08:14:29.741Z,10.35
2019-02-19T08:15:29.772Z,10.35
2019-02-19T08:16:29.801Z,10.31
2019-02-19T08:17:33.296Z,10.36
2019-02-19T08:18:29.865Z,10.34
2019-02-19T08:19:29.897Z,10.24
2019-02-19T08:20:29.927Z,10.20
2019-02-19T08:21:29.960Z,10.17
2019-02-19T08:22:29.990Z,10.13
2019-02-19T08:23:30.038Z,10.17
2019-02-19T08:24:30.055Z,10.10
2019-02-19T08:25:30.092Z,10.18
2019-02-19T08:26:30.116Z,10.06
2019-02-19T08:27:30.146Z,10.18
2019-02-19T08:28:30.176Z,10.13
2019-02-19T08:29:30.218Z,10.10
2019-02-19T08:30:30.241Z,10.14
2019-02-19T08:31:30.275Z,10.10
2019-02-19T08:32:30.306Z,10.10
2019-02-19T08:33:30.333Z,10.17
2019-02-19T08:34:30.364Z,10.18
2019-02-19T08:35:30.398Z,10.26
2019-02-19T08:36:30.429Z,10.32
2019-02-19T08:37:30.459Z,10.46
2019-02-19T08:38:30.491Z,10.39
2019-02-19T08:39:30.521Z,10.46
2019-02-19T08:40:30.557Z,10.60
2019-02-19T08:41:30.583Z,10.54
2019-02-19T08:42:30.615Z,10.58
2019-02-19T08:43:30.659Z,10.68
2019-02-19T08:44:30.682Z,10.58
2019-02-19T08:45:30.749Z,10.55
2019-02-19T08:46:30.744Z,10.42
2019-02-19T08:47:30.772Z,10.46
2019-02-19T08:48:30.802Z,10.34
2019-02-19T08:49:30.836Z,10.39
2019-02-19T08:50:30.867Z,10.29
2019-02-19T08:51:30.900Z,10.17
2019-02-19T08:52:30.929Z,10.11
2019-02-19T08:53:30.961Z,10.06
2019-02-19T08:54:30.992Z,10.02
2019-02-19T08:55:31.022Z,9.95
2019-02-19T08:56:31.058Z,10.02
2019-02-19T08:57:31.087Z,10.10
2019-02-19T08:58:31.118Z,10.11
2019-02-19T08:59:31.149Z,10.09
2019-02-19T09:00:31.187Z,10.11
2019-02-19T09:01:31.215Z,10.14
2019-02-19T09:02:31.244Z,10.07
2019-02-19T09:03:31.275Z,10.10
2019-02-19T09:04:31.314Z,10.06
2019-02-19T09:05:31.337Z,10.07
2019-02-19T09:06:31.369Z,10.13
2019-02-19T09:07:31.404Z,10.13
2019-02-19T09:08:31.434Z,10.10
2019-02-19T09:09:31.499Z,10.07
2019-02-19T09:10:31.494Z,10.16
2019-02-19T09:11:31.524Z,10.13
2019-02-19T09:12:31.556Z,10.04
2019-02-19T09:13:31.588Z,10.07
2019-02-19T09:14:31.625Z,10.09
2019-02-19T09:15:31.649Z,10.01
2019-02-19T09:16:31.680Z,9.99
2019-02-19T09:17:31.712Z,10.02
2019-02-19T09:18:31.744Z,9.96
2019-02-19T09:19:31.775Z,9.98
2019-02-19T09:20:31.806Z,10.01
2019-02-19T09:21:31.838Z,9.98
2019-02-19T09:22:31.868Z,9.96
2019-02-19T09:23:31.900Z,9.98
2019-02-19T09:24:31.935Z,10.01
2019-02-19T09:25:31.961Z,10.04
2019-02-19T09:26:31.993Z,10.10
2019-02-19T09:27:32.030Z,10.07
2019-02-19T09:28:32.066Z,10.20
2019-02-19T09:29:32.087Z,10.09
2019-02-19T09:30:32.118Z,10.22
2019-02-19T09:31:32.153Z,10.20
2019-02-19T09:32:32.181Z,10.25
2019-02-19T09:33:32.212Z,10.28
2019-02-19T09:34:32.244Z,10.34
2019-02-19T09:35:32.277Z,10.35
2019-02-19T09:36:32.307Z,10.35
2019-02-19T09:37:32.337Z,10.32
2019-02-19T09:38:32.373Z,10.32
2019-02-19T09:39:32.401Z,10.43
2019-02-19T09:40:33.555Z,10.39
2019-02-19T09:41:32.468Z,10.42
2019-02-19T09:42:32.497Z,10.55
2019-02-19T09:43:35.430Z,10.43
2019-02-19T09:44:32.557Z,10.49
2019-02-19T09:45:32.595Z,10.42
2019-02-19T09:46:32.619Z,10.44
2019-02-19T09:47:32.653Z,10.35
2019-02-19T09:48:32.682Z,10.46
2019-02-19T09:49:32.714Z,10.35
2019-02-19T09:50:32.744Z,10.36
2019-02-19T09:51:32.776Z,10.47
2019-02-19T09:52:32.807Z,10.43
2019-02-19T09:53:32.840Z,10.42
2019-02-19T09:54:32.870Z,10.39
2019-02-19T09:55:32.901Z,10.51
2019-02-19T09:56:32.933Z,10.54
2019-02-19T09:57:32.963Z,10.51
2019-02-19T09:58:32.995Z,10.44
2019-02-19T09:59:33.026Z,10.54
2019-02-19T10:00:33.059Z,10.49
2019-02-19T10:01:33.092Z,10.51
2019-02-19T10:02:33.123Z,10.43
2019-02-19T10:03:33.151Z,10.43
2019-02-19T10:04:33.186Z,10.42
2019-02-19T10:05:33.223Z,10.43
2019-02-19T10:06:33.250Z,10.35
2019-02-19T10:07:33.279Z,10.39
2019-02-19T10:08:33.308Z,10.38
2019-02-19T10:09:33.344Z,10.43
2019-02-19T10:10:33.374Z,10.55
2019-02-19T10:11:33.402Z,10.55
2019-02-19T10:12:33.434Z,10.52
2019-02-19T10:13:33.468Z,10.55
2019-02-19T10:14:33.500Z,10.54
2019-02-19T10:15:33.528Z,10.57
2019-02-19T10:16:41.394Z,10.57
2019-02-19T10:17:33.591Z,10.58
2019-02-19T10:18:33.627Z,10.52
2019-02-19T10:19:33.655Z,10.60
2019-02-19T10:20:33.685Z,10.51
2019-02-19T10:21:33.717Z,10.69
2019-02-19T10:22:33.748Z,10.66
2019-02-19T10:23:33.784Z,10.65
2019-02-19T10:24:33.811Z,10.63
2019-02-19T10:25:33.843Z,10.70
2019-02-19T10:26:33.875Z,10.69
2019-02-19T10:27:33.910Z,10.68
2019-02-19T10:28:33.936Z,10.69
2019-02-19T10:29:33.970Z,10.76
2019-02-19T10:30:34.001Z,10.81
2019-02-19T10:31:34.034Z,10.81
2019-02-19T10:32:34.064Z,10.81
2019-02-19T10:33:34.096Z,10.78
2019-02-19T10:34:34.128Z,10.70
2019-02-19T10:35:34.158Z,10.69
2019-02-19T10:36:34.189Z,10.75
2019-02-19T10:37:34.226Z,10.68
2019-02-19T10:38:34.253Z,10.73
2019-02-19T10:39:34.285Z,10.72
2019-02-19T10:40:34.316Z,10.66
2019-02-19T10:41:34.349Z,10.69
2019-02-19T10:42:34.379Z,10.72
2019-02-19T10:43:34.411Z,10.72
2019-02-19T10:44:34.444Z,10.70
2019-02-19T10:45:34.474Z,10.70
2019-02-19T10:46:34.507Z,10.72
2019-02-19T10:47:35.897Z,10.69
2019-02-19T10:48:34.568Z,10.70
2019-02-19T10:49:34.602Z,10.75
2019-02-19T10:50:34.632Z,10.69
2019-02-19T10:51:34.666Z,10.73
2019-02-19T10:52:34.695Z,10.72
2019-02-19T10:53:34.727Z,10.73
2019-02-19T10:54:34.760Z,10.75
2019-02-19T10:55:34.791Z,10.80
2019-02-19T10:56:34.822Z,10.80
2019-02-19T10:57:34.855Z,10.78
2019-02-19T10:58:34.887Z,10.83
2019-02-19T10:59:34.917Z,10.90
2019-02-19T11:00:34.948Z,10.91
2019-02-19T11:01:34.981Z,10.98
2019-02-19T11:02:35.012Z,10.99
2019-02-19T11:03:35.043Z,11.08
2019-02-19T11:04:35.075Z,11.23
2019-02-19T11:05:35.108Z,11.28
2019-02-19T11:06:35.139Z,11.33
2019-02-19T11:07:35.170Z,11.31
2019-02-19T11:08:35.203Z,11.36
2019-02-19T11:09:35.236Z,11.36
2019-02-19T11:10:35.267Z,11.41
2019-02-19T11:11:35.297Z,11.33
2019-02-19T11:12:35.330Z,11.31
2019-02-19T11:13:35.362Z,11.23
2019-02-19T11:14:35.394Z,11.28
2019-02-19T11:15:35.424Z,11.28
2019-02-19T11:16:35.457Z,11.30
2019-02-19T11:17:35.494Z,11.21
2019-02-19T11:18:35.523Z,11.13
2019-02-19T11:19:35.552Z,11.20
2019-02-19T11:20:35.586Z,11.24
2019-02-19T11:21:35.616Z,11.20
2019-02-19T11:22:35.650Z,11.21
2019-02-19T11:23:35.679Z,11.27
2019-02-19T11:24:35.715Z,11.24
2019-02-19T11:25:35.743Z,11.16
2019-02-19T11:26:35.781Z,11.24
2019-02-19T11:27:35.807Z,11.21
2019-02-19T11:28:35.839Z,11.21
2019-02-19T11:29:35.872Z,11.24
2019-02-19T11:30:35.903Z,11.33
2019-02-19T11:31:35.934Z,11.38
2019-02-19T11:32:35.969Z,11.41
2019-02-19T11:33:35.999Z,11.49
2019-02-19T11:34:36.101Z,11.51
2019-02-19T11:35:36.112Z,11.53
2019-02-19T11:36:36.093Z,11.42
2019-02-19T11:37:37.433Z,11.56
2019-02-19T11:38:36.161Z,11.49
2019-02-19T11:39:36.191Z,11.46
2019-02-19T11:40:36.221Z,11.54
2019-02-19T11:41:36.255Z,11.46
2019-02-19T11:42:36.288Z,11.51
2019-02-19T11:43:36.317Z,11.53
2019-02-19T11:44:36.349Z,11.51
2019-02-19T11:45:36.381Z,11.54
2019-02-19T11:46:36.414Z,11.49
2019-02-19T11:47:36.446Z,11.49
2019-02-19T11:48:37.186Z,11.56
2019-02-19T11:49:36.509Z,11.48
2019-02-19T11:50:36.547Z,11.56
2019-02-19T11:51:36.573Z,11.48
2019-02-19T11:52:36.604Z,11.56
2019-02-19T11:53:36.641Z,11.48
2019-02-19T11:54:36.680Z,11.42
2019-02-19T11:55:36.700Z,11.39
2019-02-19T11:56:36.733Z,11.28
2019-02-19T11:57:36.766Z,11.27
2019-02-19T11:58:36.800Z,11.24
2019-02-19T11:59:37.540Z,11.23
2019-02-19T12:00:36.862Z,11.24
2019-02-19T12:01:36.894Z,11.20
2019-02-19T12:02:36.925Z,11.09
2019-02-19T12:03:36.958Z,11.03
2019-02-19T12:04:36.996Z,11.05
2019-02-19T12:05:37.022Z,11.16
2019-02-19T12:06:37.054Z,11.17
2019-02-19T12:07:37.084Z,11.17
2019-02-19T12:08:39.011Z,11.23
2019-02-19T12:09:37.149Z,11.30
2019-02-19T12:10:37.182Z,11.38
2019-02-19T12:11:37.212Z,11.39
2019-02-19T12:12:37.246Z,11.42
2019-02-19T12:13:37.277Z,11.51
2019-02-19T12:14:37.309Z,11.41
2019-02-19T12:15:37.340Z,11.60
2019-02-19T12:16:37.375Z,11.60
2019-02-19T12:17:37.404Z,11.57
2019-02-19T12:18:45.671Z,11.66
2019-02-19T12:19:37.468Z,11.67
2019-02-19T12:20:37.501Z,11.70
2019-02-19T12:21:37.532Z,11.75
2019-02-19T12:22:37.565Z,11.84
2019-02-19T12:23:37.597Z,11.78
2019-02-19T12:24:37.628Z,11.82
2019-02-19T12:25:37.661Z,11.90
2019-02-19T12:26:37.692Z,11.90
2019-02-19T12:27:37.727Z,11.82
2019-02-19T12:28:37.756Z,11.72
2019-02-19T12:29:37.790Z,11.88
2019-02-19T12:30:37.826Z,11.74
2019-02-19T12:31:37.860Z,11.75
2019-02-19T12:32:37.886Z,11.78
2019-02-19T12:33:37.919Z,11.90
2019-02-19T12:34:37.951Z,11.93
2019-02-19T12:35:37.988Z,11.84
2019-02-19T12:36:38.015Z,11.93
2019-02-19T12:37:38.047Z,11.88
2019-02-19T12:38:38.079Z,11.74
2019-02-19T12:39:38.110Z,11.67
2019-02-19T12:40:38.144Z,11.75
2019-02-19T12:41:38.177Z,11.72
2019-02-19T12:42:38.208Z,11.90
2019-02-19T12:43:38.240Z,11.88
2019-02-19T12:44:38.272Z,11.96
2019-02-19T12:45:38.305Z,11.87
2019-02-19T12:46:38.338Z,11.84
2019-02-19T12:47:38.371Z,11.88
2019-02-19T12:48:38.400Z,11.77
2019-02-19T12:49:38.465Z,11.70
2019-02-19T12:50:38.466Z,11.87
2019-02-19T12:51:38.498Z,11.79
2019-02-19T12:52:38.540Z,11.90
2019-02-19T12:53:38.562Z,11.90
2019-02-19T12:54:38.595Z,11.93
2019-02-19T12:55:38.626Z,11.97
2019-02-19T12:56:38.662Z,12.05
2019-02-19T12:57:38.690Z,11.98
2019-02-19T12:58:38.724Z,12.03
2019-02-19T12:59:38.755Z,11.96
2019-02-19T13:00:38.787Z,11.93
2019-02-19T13:01:38.821Z,11.88
2019-02-19T13:02:38.852Z,11.81
2019-02-19T13:03:38.884Z,11.74
2019-02-19T13:04:38.926Z,11.74
2019-02-19T13:05:38.949Z,11.75
2019-02-19T13:06:38.981Z,11.96
2019-02-19T13:07:39.042Z,12.04
2019-02-19T13:08:39.046Z,12.08
2019-02-19T13:09:39.080Z,12.16
2019-02-19T13:10:39.111Z,12.15
2019-02-19T13:11:39.142Z,12.16
2019-02-19T13:12:39.175Z,12.05
2019-02-19T13:13:39.211Z,12.07
2019-02-19T13:14:39.239Z,12.03
2019-02-19T13:15:39.271Z,12.07
2019-02-19T13:16:39.303Z,11.98
2019-02-19T13:17:39.336Z,11.87
2019-02-19T13:18:39.369Z,11.78
2019-02-19T13:19:39.399Z,11.78
2019-02-19T13:20:39.441Z,11.77
2019-02-19T13:21:39.465Z,11.88
2019-02-19T13:22:39.498Z,11.97
2019-02-19T13:23:39.529Z,12.04
2019-02-19T13:24:39.563Z,12.07
2019-02-19T13:25:39.595Z,12.04
2019-02-19T13:26:39.626Z,11.88
2019-02-19T13:27:39.661Z,11.72
2019-02-19T13:28:39.692Z,11.66
2019-02-19T13:29:39.724Z,11.67
2019-02-19T13:30:39.756Z,11.46
2019-02-19T13:31:39.788Z,11.46
2019-02-19T13:32:39.826Z,11.48
2019-02-19T13:33:39.852Z,11.64
2019-02-19T13:34:39.885Z,11.69
2019-02-19T13:35:39.917Z,11.82
2019-02-19T13:36:39.952Z,11.88
2019-02-19T13:37:39.981Z,11.97
2019-02-19T13:38:40.015Z,12.00
2019-02-19T13:39:40.048Z,11.90
2019-02-19T13:40:40.086Z,11.85
2019-02-19T13:41:40.111Z,11.84
2019-02-19T13:42:40.145Z,11.77
2019-02-19T13:43:40.175Z,11.67
2019-02-19T13:44:40.214Z,11.56
2019-02-19T13:45:40.240Z,11.56
2019-02-19T13:46:40.273Z,11.46
2019-02-19T13:47:40.303Z,11.54
2019-02-19T13:48:40.336Z,11.54
2019-02-19T13:49:40.367Z,11.42
2019-02-19T13:50:40.405Z,11.48
2019-02-19T13:51:40.432Z,11.38
2019-02-19T13:52:40.465Z,11.30
2019-02-19T13:53:40.496Z,11.30
2019-02-19T13:54:40.529Z,11.33
2019-02-19T13:55:40.563Z,11.28
2019-02-19T13:56:40.593Z,11.35
2019-02-19T13:57:40.628Z,11.51
2019-02-19T13:58:40.657Z,12.03
2019-02-19T13:59:40.688Z,12.67
2019-02-19T14:00:40.723Z,13.12
2019-02-19T14:01:40.753Z,13.63
2019-02-19T14:02:40.787Z,13.98
2019-02-19T14:03:40.819Z,14.16
2019-02-19T14:04:40.851Z,14.05
2019-02-19T14:05:40.883Z,13.93
2019-02-19T14:06:40.918Z,13.81
2019-02-19T14:07:40.949Z,13.84
2019-02-19T14:08:40.986Z,13.66
2019-02-19T14:09:41.017Z,13.48
2019-02-19T14:10:41.049Z,13.35
2019-02-19T14:11:41.081Z,13.21
2019-02-19T14:12:41.113Z,13.13
2019-02-19T14:13:41.151Z,13.07
2019-02-19T14:14:41.180Z,12.95
2019-02-19T14:15:41.217Z,12.85
2019-02-19T14:16:41.246Z,12.80
2019-02-19T14:17:41.285Z,12.74
2019-02-19T14:18:41.313Z,12.71
2019-02-19T14:19:41.347Z,12.51